Casper, WY

5:24 PM MDT on August 21, 2014 (GMT -0600)
North of Casper, WY | Change Station
CLOSE
Current Station
Personal Weather Station
Location: Bar Nunn, WY
Elevation: 5276 ft
Nearby Weather Stations

Elev 5276 ft 42.91 °N, 106.35 °W | Updated 60 seconds ago

Partly Cloudy
Partly Cloudy
80.2 °F
Feels Like 79 °F
N
17.6
Wind Variable Wind from North
Gusts 17.6 mph

Today
High -- | Low -- °F
--% Chance of Precip.
Yesterday
High -- | Low -- °F
Precip. -- in
6:18 AM 7:57 PM
Waning Crescent, 11% visible
Pressure 29.85 in
Visibility 10.0 miles
Clouds Few 9000 ft
Few 11000 ft
Heat Index 79 °F
Dew Point 44 °F
Humidity 28%
Rainfall 0.00 in
Snow Depth 0 in
UV 4 out of 12
Pollen 9.70 out of 12
Air Quality Not available.
Flu Activity Not available.
METAR KCPR 212253Z 25015G25KT 10SM FEW090 FEW110 27/04 A3003 RMK AO2 PK WND 24029/2233 SLP106 T02720044

More Conditions Fewer Conditions

Pressure 29.85 in
Visibility 10.0 miles
Clouds Few 9000 ft
Few 11000 ft
Heat Index 79 °F
Dew Point 44 °F
Humidity 28%
Rainfall 0.00 in
Snow Depth 0 in
UV 4 out of 12
Pollen 9.70 out of 12
Air Quality Not available.
Flu Activity Not available.
METAR KCPR 212253Z 25015G25KT 10SM FEW090 FEW110 27/04 A3003 RMK AO2 PK WND 24029/2233 SLP106 T02720044

More Conditions Fewer Conditions

10-Day Weather Forecast

Almanac

Astronomy

Aug. 21, 2014 Rise Set
Actual Time 6:18 AM MDT 7:57 PM MDT
Civil Twilight 5:48 AM MDT 8:27 PM MDT
Nautical Twilight 5:11 AM MDT 9:04 PM MDT
Astronomical Twilight 4:32 AM MDT 9:42 PM MDT
Moon 2:48 AM MDT 5:30 PM MDT
Length of Visible Light 14h 39m
Length of Day
13h 39m
Tomorrow will be 2m 41s shorter.
Waning Crescent, 11% of the Moon is Illuminated
Today
Waning Crescent
Aug 25
New
Sep 2
First Quarter
Sep 8
Full
Sep 15
Last Quarter

Today's Extremes

State Highs State Lows

Community

WunderPhotos

Upload Photos

1,746,052 photos uploaded!

Nearby

Snow Depth

Station Depth Elevation
Casper Mountain 0 in 7850 ft
Grave Springs 0 in 8550 ft
Middle Powder 0 in 7760 ft
Tie Creek 0 in 6870 ft
Hansen Sawmill 0 in 8360 ft

Earthquake Activity

City Distance Mag. Time & Date
No recent earthquake activity has been reported nearby.
Minimum magnitude displayed is 2.5.

Coastal Water Temperatures

Place Temperature
No Stations Reporting

Nearby Weather Stations